createdAt,value
2018-06-22T00:01:03.293Z,10.80
2018-06-22T00:03:29.260Z,10.80
2018-06-22T00:05:55.923Z,10.90
2018-06-22T00:08:21.880Z,10.80
2018-06-22T00:10:47.833Z,10.90
2018-06-22T00:13:14.486Z,11.00
2018-06-22T00:15:41.159Z,11.00
2018-06-22T00:18:07.072Z,11.00
2018-06-22T00:20:33.026Z,11.00
2018-06-22T00:22:58.950Z,11.00
2018-06-22T00:25:24.857Z,11.10
2018-06-22T00:27:50.791Z,11.00
2018-06-22T00:30:16.703Z,11.00
2018-06-22T00:32:42.637Z,11.00
2018-06-22T00:35:08.568Z,11.00
2018-06-22T00:37:34.531Z,11.00
2018-06-22T00:40:00.435Z,11.00
2018-06-22T00:42:27.100Z,10.90
2018-06-22T00:44:53.042Z,10.90
2018-06-22T00:47:18.983Z,10.90
2018-06-22T00:49:44.941Z,11.00
2018-06-22T00:52:11.603Z,11.00
2018-06-22T00:54:37.525Z,11.00
2018-06-22T00:57:03.471Z,11.10
2018-06-22T00:59:29.392Z,11.10
2018-06-22T01:01:55.362Z,11.00
2018-06-22T01:04:22.034Z,11.10
2018-06-22T01:06:47.952Z,11.10
2018-06-22T01:09:13.893Z,11.10
2018-06-22T01:11:39.817Z,11.10
2018-06-22T01:14:05.765Z,11.20
2018-06-22T01:16:31.701Z,11.20
2018-06-22T01:18:58.395Z,11.10
2018-06-22T01:21:24.310Z,11.10
2018-06-22T01:23:50.227Z,11.10
2018-06-22T01:26:16.194Z,11.10
2018-06-22T01:28:42.123Z,11.00
2018-06-22T01:31:08.053Z,10.90
2018-06-22T01:33:34.727Z,10.80
2018-06-22T01:36:00.672Z,10.80
2018-06-22T01:38:26.617Z,10.80
2018-06-22T01:40:52.681Z,10.70
2018-06-22T01:43:18.601Z,10.70
2018-06-22T01:45:44.529Z,10.60
2018-06-22T01:48:10.483Z,10.60
2018-06-22T01:50:36.426Z,10.60
2018-06-22T01:53:02.383Z,10.60
2018-06-22T01:55:28.315Z,10.60
2018-06-22T01:57:54.269Z,10.60
2018-06-22T02:00:20.192Z,10.60
2018-06-22T02:02:46.139Z,10.60
2018-06-22T02:05:12.083Z,10.60
2018-06-22T02:07:38.746Z,10.70
2018-06-22T02:10:04.702Z,10.60
2018-06-22T02:12:30.641Z,10.70
2018-06-22T02:14:56.576Z,10.70
2018-06-22T02:17:22.534Z,10.70
2018-06-22T02:19:48.457Z,10.80
2018-06-22T02:22:14.436Z,10.90
2018-06-22T02:24:40.364Z,10.90
2018-06-22T02:27:06.299Z,10.90
2018-06-22T02:29:32.259Z,10.90
2018-06-22T02:31:58.199Z,11.00
2018-06-22T02:34:24.141Z,11.00
2018-06-22T02:36:50.066Z,11.00
2018-06-22T02:39:16.024Z,11.00
2018-06-22T02:41:41.937Z,11.00
2018-06-22T02:44:08.606Z,11.00
2018-06-22T02:46:34.572Z,11.00
2018-06-22T02:49:00.498Z,11.00
2018-06-22T02:51:26.441Z,11.00
2018-06-22T02:53:53.127Z,11.10
2018-06-22T02:56:19.071Z,11.00
2018-06-22T02:58:44.995Z,11.10
2018-06-22T03:01:10.975Z,11.10
2018-06-22T03:03:36.905Z,11.00
2018-06-22T03:06:02.840Z,11.00
2018-06-22T03:08:28.814Z,11.00
2018-06-22T03:10:54.757Z,11.00
2018-06-22T03:13:20.726Z,11.10
2018-06-22T03:15:47.415Z,11.00
2018-06-22T03:18:13.377Z,11.00
2018-06-22T03:20:39.308Z,11.00
2018-06-22T03:23:05.236Z,11.00
2018-06-22T03:25:31.177Z,11.00
2018-06-22T03:27:57.835Z,11.00
2018-06-22T03:30:23.771Z,11.00
2018-06-22T03:32:49.726Z,11.00
2018-06-22T03:35:15.686Z,11.00
2018-06-22T03:37:42.342Z,10.90
2018-06-22T03:40:08.262Z,10.90
2018-06-22T03:42:34.214Z,10.90
2018-06-22T03:45:00.136Z,10.90
2018-06-22T03:47:26.074Z,10.90
2018-06-22T03:49:52.006Z,10.90
2018-06-22T03:52:17.955Z,10.90
2018-06-22T03:54:44.645Z,10.90
2018-06-22T03:57:10.587Z,10.90
2018-06-22T03:59:36.521Z,10.90
2018-06-22T04:02:02.450Z,10.90
2018-06-22T04:04:29.148Z,10.90
2018-06-22T04:06:55.073Z,10.80
2018-06-22T04:09:21.023Z,10.90
2018-06-22T04:11:46.943Z,10.90
2018-06-22T04:14:12.875Z,10.80
2018-06-22T04:16:39.554Z,10.90
2018-06-22T04:19:05.489Z,10.80
2018-06-22T04:21:31.438Z,10.80
2018-06-22T04:23:57.367Z,10.80
2018-06-22T04:26:23.314Z,10.90
2018-06-22T04:28:49.969Z,10.80
2018-06-22T04:31:15.886Z,10.80
2018-06-22T04:33:41.838Z,10.90
2018-06-22T04:36:07.779Z,10.90
2018-06-22T04:38:33.755Z,10.90
2018-06-22T04:40:59.675Z,11.00
2018-06-22T04:43:25.582Z,11.00
2018-06-22T04:45:52.250Z,11.00
2018-06-22T04:48:18.166Z,11.00
2018-06-22T04:50:44.106Z,11.00
2018-06-22T04:53:10.017Z,11.00
2018-06-22T04:55:35.952Z,11.00
2018-06-22T04:58:01.868Z,11.00
2018-06-22T05:00:27.808Z,11.00
2018-06-22T05:02:53.767Z,11.00
2018-06-22T05:05:20.437Z,11.00
2018-06-22T05:07:46.394Z,11.00
2018-06-22T05:10:12.327Z,11.00
2018-06-22T05:12:38.260Z,11.00
2018-06-22T05:15:04.194Z,10.90
2018-06-22T05:17:30.888Z,10.90
2018-06-22T05:19:56.831Z,10.90
2018-06-22T05:22:22.765Z,10.90
2018-06-22T05:24:48.719Z,10.80
2018-06-22T05:27:14.654Z,10.90
2018-06-22T05:29:40.598Z,11.20
2018-06-22T05:32:06.503Z,11.60
2018-06-22T05:34:32.435Z,11.70
2018-06-22T05:36:58.364Z,11.80
2018-06-22T05:39:24.316Z,11.90
2018-06-22T05:41:50.975Z,11.60
2018-06-22T05:44:16.903Z,11.60
2018-06-22T05:46:42.846Z,11.50
2018-06-22T05:49:08.774Z,11.30
2018-06-22T05:51:34.728Z,11.10
2018-06-22T05:54:00.668Z,11.10
2018-06-22T05:56:27.343Z,11.30
2018-06-22T05:58:53.259Z,11.30
2018-06-22T06:01:19.192Z,11.60
2018-06-22T06:03:45.128Z,11.80
2018-06-22T06:06:11.043Z,12.20
2018-06-22T06:08:36.984Z,12.50
2018-06-22T06:11:02.908Z,12.70
2018-06-22T06:13:28.838Z,13.00
2018-06-22T06:15:54.763Z,13.30
2018-06-22T06:18:21.452Z,13.10
2018-06-22T06:20:47.394Z,13.10
2018-06-22T06:23:13.336Z,13.20
2018-06-22T06:25:39.299Z,13.40
2018-06-22T06:28:05.963Z,13.60
2018-06-22T06:30:32.140Z,13.50
2018-06-22T06:32:58.074Z,13.40
2018-06-22T06:35:24.721Z,12.70
2018-06-22T06:37:51.402Z,12.60
2018-06-22T06:40:17.316Z,12.60
2018-06-22T06:42:43.264Z,12.50
2018-06-22T06:45:09.187Z,12.40
2018-06-22T06:47:35.117Z,12.50
2018-06-22T06:50:01.044Z,12.60
2018-06-22T06:52:26.993Z,12.70
2018-06-22T06:54:53.651Z,13.50
2018-06-22T06:57:19.559Z,13.50
2018-06-22T06:59:45.499Z,14.10
2018-06-22T07:02:11.423Z,15.50
2018-06-22T07:04:37.371Z,17.20
2018-06-22T07:07:03.298Z,18.00
2018-06-22T07:09:29.279Z,17.60
2018-06-22T07:11:55.212Z,16.80
2018-06-22T07:14:21.215Z,16.40
2018-06-22T07:16:47.852Z,15.90
2018-06-22T07:19:13.778Z,15.80
2018-06-22T07:21:39.708Z,15.60
2018-06-22T07:24:05.632Z,15.80
2018-06-22T07:26:31.574Z,17.20
2018-06-22T07:28:57.503Z,18.50
2018-06-22T07:31:23.471Z,19.30
2018-06-22T07:33:50.152Z,18.80
2018-06-22T07:36:16.087Z,18.80
2018-06-22T07:38:42.052Z,17.30
2018-06-22T07:41:08.705Z,18.10
2018-06-22T07:43:34.668Z,18.10
2018-06-22T07:46:00.616Z,17.20
2018-06-22T07:48:26.574Z,17.20
2018-06-22T07:50:52.504Z,18.60
2018-06-22T07:53:18.419Z,19.90
2018-06-22T07:55:44.376Z,19.50
2018-06-22T07:58:10.294Z,18.10
2018-06-22T08:00:36.243Z,16.90
2018-06-22T08:03:02.179Z,17.80
2018-06-22T08:05:28.875Z,19.70
2018-06-22T08:07:54.801Z,19.60
2018-06-22T08:10:20.729Z,19.20
2018-06-22T08:12:46.677Z,18.10
2018-06-22T08:15:12.621Z,17.30
2018-06-22T08:17:39.368Z,17.70
2018-06-22T08:20:05.271Z,17.70
2018-06-22T08:22:31.960Z,19.50
2018-06-22T08:24:57.867Z,19.50
2018-06-22T08:27:23.836Z,19.00
2018-06-22T08:29:49.781Z,18.30
2018-06-22T08:32:16.459Z,16.50
2018-06-22T08:34:42.421Z,16.50
2018-06-22T08:37:08.337Z,16.40
2018-06-22T08:39:34.293Z,17.00
2018-06-22T08:42:00.379Z,17.80
2018-06-22T08:44:26.220Z,18.50
2018-06-22T08:46:52.903Z,18.20
2018-06-22T08:49:18.846Z,18.20
2018-06-22T08:51:44.768Z,17.60
2018-06-22T08:54:10.710Z,18.30
2018-06-22T08:56:36.674Z,18.70
2018-06-22T08:59:02.625Z,17.90
2018-06-22T09:01:28.581Z,18.80
2018-06-22T09:03:54.513Z,20.20
2018-06-22T09:06:20.456Z,20.70
2018-06-22T09:08:46.384Z,21.10
2018-06-22T09:11:12.315Z,21.80
2018-06-22T09:13:38.266Z,21.90
2018-06-22T09:16:04.187Z,22.20
2018-06-22T09:18:30.139Z,21.50
2018-06-22T09:20:56.060Z,21.00
2018-06-22T09:23:21.992Z,20.60
2018-06-22T09:25:48.679Z,21.80
2018-06-22T09:28:14.599Z,21.80
2018-06-22T09:30:40.576Z,21.50
2018-06-22T09:33:07.236Z,20.80
2018-06-22T09:35:33.159Z,20.80
2018-06-22T09:37:59.108Z,20.10
2018-06-22T09:40:25.040Z,20.70
2018-06-22T09:42:51.067Z,20.20
2018-06-22T09:45:16.979Z,19.80
2018-06-22T09:47:42.940Z,18.70
2018-06-22T09:50:09.619Z,19.90
2018-06-22T09:52:35.550Z,19.80
2018-06-22T09:55:01.515Z,20.40
2018-06-22T09:57:27.438Z,19.50
2018-06-22T09:59:53.391Z,18.70
2018-06-22T10:02:19.332Z,18.70
2018-06-22T10:04:45.430Z,20.00
2018-06-22T10:07:11.247Z,19.10
2018-06-22T10:09:37.205Z,18.20
2018-06-22T10:12:03.141Z,17.90
2018-06-22T10:14:29.071Z,18.80
2018-06-22T10:16:55.009Z,18.40
2018-06-22T10:19:20.947Z,18.40
2018-06-22T10:21:46.896Z,17.90
2018-06-22T10:24:12.824Z,17.80
2018-06-22T10:26:38.800Z,18.70
2018-06-22T10:29:05.472Z,18.70
2018-06-22T10:31:31.404Z,18.70
2018-06-22T10:33:57.365Z,18.80
2018-06-22T10:36:23.281Z,18.40
2018-06-22T10:38:49.235Z,18.10
2018-06-22T10:41:15.172Z,18.50
2018-06-22T10:43:41.857Z,18.80
2018-06-22T10:46:07.858Z,18.70
2018-06-22T10:48:34.523Z,19.50
2018-06-22T10:51:00.442Z,19.50
2018-06-22T10:53:26.368Z,19.50
2018-06-22T10:55:52.310Z,19.40
2018-06-22T10:58:18.263Z,19.80
2018-06-22T11:00:44.934Z,19.50
2018-06-22T11:03:10.862Z,19.50
2018-06-22T11:05:36.835Z,19.30
2018-06-22T11:08:03.524Z,18.50
2018-06-22T11:10:29.439Z,18.50
2018-06-22T11:12:55.382Z,18.10
2018-06-22T11:15:21.307Z,18.30
2018-06-22T11:17:47.229Z,17.90
2018-06-22T11:20:13.142Z,17.80
2018-06-22T11:22:39.084Z,18.40
2018-06-22T11:25:05.015Z,18.60
2018-06-22T11:27:30.968Z,17.80
2018-06-22T11:29:56.906Z,17.00
2018-06-22T11:32:22.828Z,16.60
2018-06-22T11:34:48.763Z,16.50
2018-06-22T11:37:14.702Z,16.90
2018-06-22T11:39:40.664Z,17.10
2018-06-22T11:42:07.393Z,18.10
2018-06-22T11:44:34.127Z,18.60
2018-06-22T11:47:00.818Z,19.00
2018-06-22T11:49:26.728Z,19.00
2018-06-22T11:51:52.660Z,19.00
2018-06-22T11:54:18.600Z,18.80
2018-06-22T11:56:44.542Z,18.80
2018-06-22T11:59:10.503Z,18.70
2018-06-22T12:01:36.464Z,18.40
2018-06-22T12:04:02.427Z,18.10
2018-06-22T12:06:29.141Z,18.40
2018-06-22T12:08:55.062Z,18.40
2018-06-22T12:11:21.034Z,18.50
2018-06-22T12:13:47.699Z,19.20
2018-06-22T12:16:13.623Z,19.20
2018-06-22T12:18:39.581Z,19.50
2018-06-22T12:21:05.514Z,19.40
2018-06-22T12:23:31.450Z,19.10
2018-06-22T12:25:58.135Z,18.20
2018-06-22T12:28:24.095Z,18.20
2018-06-22T12:30:50.771Z,18.00
2018-06-22T12:33:16.723Z,18.00
2018-06-22T12:35:42.690Z,18.00
2018-06-22T12:38:09.342Z,17.60
2018-06-22T12:40:35.311Z,17.60
2018-06-22T12:43:01.259Z,17.80
2018-06-22T12:45:27.207Z,18.00
2018-06-22T12:47:53.864Z,18.30
2018-06-22T12:50:19.807Z,18.30
2018-06-22T12:52:45.758Z,18.30
2018-06-22T12:55:11.681Z,18.10
2018-06-22T12:57:37.656Z,17.90
2018-06-22T13:00:04.308Z,17.40
2018-06-22T13:02:30.273Z,17.40
2018-06-22T13:04:56.233Z,17.50
2018-06-22T13:07:22.169Z,17.50
2018-06-22T13:09:48.111Z,17.40
2018-06-22T13:12:14.052Z,17.10
2018-06-22T13:14:40.034Z,17.10
2018-06-22T13:17:06.034Z,17.20
2018-06-22T13:19:31.975Z,17.10
2018-06-22T13:21:57.919Z,17.30
2018-06-22T13:24:23.851Z,17.40
2018-06-22T13:26:49.791Z,17.60
2018-06-22T13:29:15.743Z,17.70
2018-06-22T13:31:41.721Z,17.90
2018-06-22T13:34:07.661Z,17.60
2018-06-22T13:36:33.620Z,17.60
2018-06-22T13:38:59.564Z,17.10
2018-06-22T13:41:25.495Z,16.70
2018-06-22T13:43:51.464Z,16.40
2018-06-22T13:46:18.132Z,15.90
2018-06-22T13:48:44.091Z,15.90
2018-06-22T13:51:10.018Z,15.80
2018-06-22T13:53:35.949Z,15.70
2018-06-22T13:56:01.898Z,15.90
2018-06-22T13:58:27.837Z,15.80
2018-06-22T14:00:53.806Z,16.00
2018-06-22T14:03:19.751Z,16.00
2018-06-22T14:05:46.434Z,16.00
2018-06-22T14:08:12.393Z,16.00
2018-06-22T14:10:38.366Z,16.00
2018-06-22T14:13:04.310Z,15.80
2018-06-22T14:15:31.002Z,15.80
2018-06-22T14:17:57.682Z,16.10
2018-06-22T14:20:23.621Z,16.10
2018-06-22T14:22:49.561Z,16.30
2018-06-22T14:25:15.488Z,16.40
2018-06-22T14:27:41.425Z,16.60
2018-06-22T14:30:08.122Z,16.60
2018-06-22T14:32:34.037Z,16.50
2018-06-22T14:35:00.032Z,16.50
2018-06-22T14:37:25.977Z,16.60
2018-06-22T14:39:51.900Z,16.70
2018-06-22T14:42:17.839Z,16.80
2018-06-22T14:44:43.768Z,16.80
2018-06-22T14:47:09.719Z,16.60
2018-06-22T14:49:36.379Z,16.70
2018-06-22T14:52:02.325Z,16.70
2018-06-22T14:54:28.244Z,16.70
2018-06-22T14:56:54.179Z,16.70
2018-06-22T14:59:20.874Z,16.50
2018-06-22T15:01:46.799Z,16.50
2018-06-22T15:04:12.756Z,16.60
2018-06-22T15:06:38.675Z,16.70
2018-06-22T15:09:04.611Z,16.50
2018-06-22T15:11:30.544Z,16.50
2018-06-22T15:13:56.498Z,16.50
2018-06-22T15:16:23.177Z,16.60
2018-06-22T15:18:49.135Z,16.60
2018-06-22T15:21:15.059Z,16.50
2018-06-22T15:23:40.993Z,16.80
2018-06-22T15:26:07.691Z,17.00
2018-06-22T15:28:33.636Z,17.00
2018-06-22T15:30:59.594Z,17.10
2018-06-22T15:33:25.511Z,16.70
2018-06-22T15:35:51.477Z,16.80
2018-06-22T15:38:24.481Z,16.60
2018-06-22T15:40:50.417Z,16.50
2018-06-22T15:43:16.361Z,16.60
2018-06-22T15:45:43.059Z,16.80
2018-06-22T15:48:08.998Z,16.80
2018-06-22T15:50:34.928Z,16.80
2018-06-22T15:53:00.913Z,16.70
2018-06-22T15:55:26.869Z,16.70
2018-06-22T15:57:53.569Z,16.40
2018-06-22T16:00:19.510Z,16.40
2018-06-22T16:02:45.470Z,16.40
2018-06-22T16:05:12.165Z,16.20
2018-06-22T16:07:38.125Z,16.10
2018-06-22T16:10:04.833Z,16.30
2018-06-22T16:12:30.777Z,16.30
2018-06-22T16:14:56.735Z,16.30
2018-06-22T16:17:22.655Z,16.10
2018-06-22T16:19:48.574Z,16.00
2018-06-22T16:22:14.518Z,16.00
2018-06-22T16:24:40.435Z,15.90
2018-06-22T16:27:06.385Z,15.80
2018-06-22T16:29:32.307Z,15.70
2018-06-22T16:31:58.245Z,15.70
2018-06-22T16:34:24.186Z,15.90
2018-06-22T16:36:50.876Z,16.10
2018-06-22T16:39:16.802Z,16.10
2018-06-22T16:41:42.765Z,16.10
2018-06-22T16:44:09.438Z,16.10
2018-06-22T16:46:35.351Z,16.10
2018-06-22T16:49:01.312Z,16.10
2018-06-22T16:51:27.259Z,16.10
2018-06-22T16:53:53.244Z,16.00
2018-06-22T16:56:19.179Z,15.90
2018-06-22T16:58:45.111Z,15.90
2018-06-22T17:01:11.065Z,16.00
2018-06-22T17:03:37.789Z,16.00
2018-06-22T17:06:03.859Z,16.00
2018-06-22T17:08:29.766Z,16.00
2018-06-22T17:10:56.451Z,15.80
2018-06-22T17:13:22.399Z,15.80
2018-06-22T17:15:48.333Z,15.70
2018-06-22T17:18:15.015Z,15.70
2018-06-22T17:20:40.984Z,15.70
2018-06-22T17:23:07.666Z,15.60
2018-06-22T17:25:33.593Z,15.60
2018-06-22T17:27:59.548Z,15.60
2018-06-22T17:30:25.560Z,15.60
2018-06-22T17:32:51.478Z,15.60
2018-06-22T17:35:18.142Z,15.50
2018-06-22T17:37:44.106Z,15.50
2018-06-22T17:40:10.038Z,15.60
2018-06-22T17:42:36.694Z,15.70
2018-06-22T17:45:02.648Z,15.80
2018-06-22T17:47:29.336Z,15.50
2018-06-22T17:49:55.326Z,15.50
2018-06-22T17:52:22.012Z,15.30
2018-06-22T17:54:47.966Z,15.20
2018-06-22T17:57:13.912Z,15.30
2018-06-22T17:59:40.609Z,15.30
2018-06-22T18:02:06.537Z,15.30
2018-06-22T18:04:32.519Z,15.20
2018-06-22T18:06:58.499Z,15.20
2018-06-22T18:09:24.424Z,15.10
2018-06-22T18:11:51.117Z,15.00
2018-06-22T18:14:17.081Z,14.90
2018-06-22T18:16:43.038Z,15.00
2018-06-22T18:19:09.719Z,14.90
2018-06-22T18:21:35.678Z,14.90
2018-06-22T18:24:02.379Z,14.90
2018-06-22T18:26:28.316Z,14.90
2018-06-22T18:28:54.254Z,14.80
2018-06-22T18:31:20.208Z,14.80
2018-06-22T18:33:46.165Z,14.80
2018-06-22T18:36:12.110Z,14.80
2018-06-22T18:38:38.058Z,14.80
2018-06-22T18:41:04.728Z,14.70
2018-06-22T18:43:30.688Z,14.70
2018-06-22T18:45:56.614Z,14.60
2018-06-22T18:48:22.579Z,14.70
2018-06-22T18:50:48.516Z,14.60
2018-06-22T18:53:14.476Z,14.60
2018-06-22T18:55:40.400Z,14.50
2018-06-22T18:58:06.355Z,14.50
2018-06-22T19:00:33.027Z,14.50
2018-06-22T19:02:58.965Z,14.50
2018-06-22T19:05:25.678Z,14.60
2018-06-22T19:07:51.639Z,14.60
2018-06-22T19:10:17.600Z,14.40
2018-06-22T19:12:43.540Z,14.30
2018-06-22T19:15:09.526Z,14.30
2018-06-22T19:17:35.444Z,14.30
2018-06-22T19:20:02.152Z,14.20
2018-06-22T19:22:28.113Z,14.20
2018-06-22T19:24:54.032Z,14.20
2018-06-22T19:27:19.983Z,14.20
2018-06-22T19:29:45.931Z,14.20
2018-06-22T19:32:11.861Z,14.20
2018-06-22T19:34:37.805Z,14.10
2018-06-22T19:37:03.750Z,14.10
2018-06-22T19:39:30.438Z,14.00
2018-06-22T19:41:56.359Z,14.00
2018-06-22T19:44:22.323Z,14.10
2018-06-22T19:46:48.301Z,14.00
2018-06-22T19:49:14.238Z,14.00
2018-06-22T19:51:40.192Z,14.00
2018-06-22T19:54:06.136Z,14.00
2018-06-22T19:56:32.076Z,14.00
2018-06-22T19:58:58.074Z,14.00
2018-06-22T20:01:24.754Z,14.00
2018-06-22T20:03:50.693Z,13.90
2018-06-22T20:06:16.644Z,13.90
2018-06-22T20:08:43.343Z,13.90
2018-06-22T20:11:09.526Z,13.90
2018-06-22T20:13:36.219Z,13.80
2018-06-22T20:16:02.159Z,13.80
2018-06-22T20:18:28.131Z,13.80
2018-06-22T20:20:54.056Z,13.80
2018-06-22T20:23:19.995Z,13.80
2018-06-22T20:25:45.921Z,13.70
2018-06-22T20:28:11.881Z,13.80
2018-06-22T20:30:37.814Z,13.80
2018-06-22T20:33:04.484Z,13.70
2018-06-22T20:35:30.444Z,13.70
2018-06-22T20:37:56.372Z,13.70
2018-06-22T20:40:22.354Z,13.70
2018-06-22T20:42:48.295Z,13.70
2018-06-22T20:45:14.272Z,13.70
2018-06-22T20:47:40.217Z,13.70
2018-06-22T20:50:06.214Z,13.70
2018-06-22T20:52:32.910Z,13.60
2018-06-22T20:54:58.887Z,13.60
2018-06-22T20:57:24.840Z,13.60
2018-06-22T20:59:50.789Z,13.60
2018-06-22T21:02:16.736Z,13.60
2018-06-22T21:04:43.428Z,13.60
2018-06-22T21:07:09.380Z,13.60
2018-06-22T21:09:35.343Z,13.60
2018-06-22T21:12:01.274Z,13.50
2018-06-22T21:14:27.220Z,13.50
2018-06-22T21:16:53.168Z,13.50
2018-06-22T21:19:19.092Z,13.40
2018-06-22T21:21:45.781Z,13.40
2018-06-22T21:24:11.707Z,13.40
2018-06-22T21:26:37.648Z,13.20
2018-06-22T21:29:03.566Z,13.20
2018-06-22T21:31:29.512Z,13.10
2018-06-22T21:33:55.462Z,13.00
2018-06-22T21:36:21.417Z,13.00
2018-06-22T21:38:47.367Z,12.80
2018-06-22T21:41:13.335Z,12.80
2018-06-22T21:43:39.281Z,12.70
2018-06-22T21:46:05.218Z,12.70
2018-06-22T21:48:31.164Z,12.60
2018-06-22T21:50:57.086Z,12.60
2018-06-22T21:53:23.041Z,12.60
2018-06-22T21:55:49.011Z,12.50
2018-06-22T21:58:14.960Z,12.50
2018-06-22T22:00:40.935Z,12.40
2018-06-22T22:03:07.630Z,12.30
2018-06-22T22:05:34.311Z,12.20
2018-06-22T22:08:00.263Z,12.20
2018-06-22T22:10:26.233Z,12.20
2018-06-22T22:12:52.175Z,12.10
2018-06-22T22:15:18.141Z,12.10
2018-06-22T22:17:44.080Z,12.10
2018-06-22T22:20:10.766Z,12.00
2018-06-22T22:22:36.680Z,12.00
2018-06-22T22:25:02.633Z,12.00
2018-06-22T22:27:28.562Z,12.00
2018-06-22T22:29:54.492Z,12.00
2018-06-22T22:32:21.185Z,11.90
2018-06-22T22:34:47.130Z,11.90
2018-06-22T22:37:13.091Z,11.90
2018-06-22T22:39:39.760Z,11.90
2018-06-22T22:42:05.730Z,11.80
2018-06-22T22:44:31.659Z,11.80
2018-06-22T22:46:57.582Z,11.80
2018-06-22T22:49:23.527Z,11.70
2018-06-22T22:51:50.209Z,11.70
2018-06-22T22:54:16.162Z,11.70
2018-06-22T22:56:42.130Z,11.70
2018-06-22T22:59:08.075Z,11.70
2018-06-22T23:01:34.015Z,11.70
2018-06-22T23:03:59.948Z,11.70
2018-06-22T23:06:25.894Z,11.80
2018-06-22T23:08:52.583Z,11.70
2018-06-22T23:11:18.536Z,11.70
2018-06-22T23:13:44.453Z,11.80
2018-06-22T23:16:10.387Z,11.80
2018-06-22T23:18:37.079Z,11.80
2018-06-22T23:21:03.016Z,11.80
2018-06-22T23:23:28.989Z,11.80
2018-06-22T23:25:55.673Z,11.80
2018-06-22T23:28:21.584Z,11.80
2018-06-22T23:30:47.532Z,11.80
2018-06-22T23:33:13.475Z,11.80
2018-06-22T23:35:40.201Z,11.70
2018-06-22T23:38:06.132Z,11.70
2018-06-22T23:40:32.084Z,11.80
2018-06-22T23:42:58.766Z,11.80
2018-06-22T23:45:24.752Z,11.80
2018-06-22T23:47:50.679Z,11.80
2018-06-22T23:50:16.611Z,11.80
2018-06-22T23:52:42.564Z,11.80
2018-06-22T23:55:08.593Z,11.80
2018-06-22T23:57:34.458Z,11.90
